Adamsville, Pennsylvania
Current Conditions -  °F | °C
As of 4:53 AM on Friday 24 Oct 2014 (Local Time) from KGKJ Reporting Station
Haze Haze  
Wind Chill:   Ceiling: Unl
Heat Index:   Visibility: 6mi
Dew Point:   Wind: 7mph
Humidity: 92%   Direction: 270°W
Pressure: 30.06"   Gusts: NA
Location:  41.51°N, 80.37°W
Report Text: KGKJ 240853Z AUTO 27006KT 6SM BR CLR 06/04 A3006 RMK AO2 SLP184 T00560044 50000 TSNO
Loading
Personal Weather Stations






























Interactive Weather Map
Tropical Storm Tracking
New forecast layout! Learn more

10-Day Weather Forecast

Advertisements
Track Severe Weather on mobile